Terminal Aerodrome Forecast
Issued by NWS

Home | Current Version | Previous Version | Text Only | Print | Product List | Glossary On
Versions: 1 2 3 4 5 6 7 8 9 10 11 12 13 14 15 16 17 18 19 20 21 22 23 24 25
000
FTAK31 PAFA 201729
TAFABT
TAF
PABT 201729Z 2018/2118 00000KT P6SM FEW002 SCT200
     FM202100 22005KT P6SM VCSH BKN050 BKN100
     FM210300 22005KT P6SM -SHRA BKN035=

USA.gov is the U.S. government's official web portal to all federal, state and local government web resources and services.